Time;durP1;ratioP1;P1;durP2;ratioP2;P2;SDS_P1;SDS_P2;PMS_P1;PMS_P2;Temp;Humidity;BMP_temperature;BMP_pressure;BME280_temperature;BME280_humidity;BME280_pressure;Samples;Min_cycle;Max_cycle;Signal;HPM_P1;HPM_P2
2022/09/17 00:00:32;;;;;;;3.88;1.63;;;;;;;;;;5029095;28;20036;-61
2022/09/17 00:02:58;;;;;;;7.50;1.40;;;;;;;;;;5031664;28;20030;-61
2022/09/17 00:05:24;;;;;;;11.05;2.00;;;;;;;;;;5032002;28;20060;-60
2022/09/17 00:07:51;;;;;;;6.70;1.67;;;;;;;;;;5030434;28;20033;-61
2022/09/17 00:10:17;;;;;;;8.80;1.65;;;;;;;;;;5031775;28;20399;-61
2022/09/17 00:12:43;;;;;;;7.40;1.20;;;;;;;;;;5031362;28;20041;-61
2022/09/17 00:15:09;;;;;;;9.60;1.52;;;;;;;;;;5030232;28;20481;-60
2022/09/17 00:17:35;;;;;;;7.10;1.50;;;;;;;;;;5030460;28;20104;-60
2022/09/17 00:20:02;;;;;;;5.07;1.50;;;;;;;;;;5031395;28;20030;-60
2022/09/17 00:22:27;;;;;;;6.55;1.38;;;;;;;;;;5031700;28;20025;-61
2022/09/17 00:24:53;;;;;;;4.80;1.58;;;;;;;;;;5031636;28;20025;-60
2022/09/17 00:27:19;;;;;;;12.80;1.42;;;;;;;;;;5027569;28;20087;-61
2022/09/17 00:29:47;;;;;;;8.75;1.67;;;;;;;;;;5027704;28;20393;-61
2022/09/17 00:32:13;;;;;;;8.20;1.85;;;;;;;;;;5030089;28;20488;-61
2022/09/17 00:34:39;;;;;;;6.40;1.67;;;;;;;;;;5031698;28;20068;-61
2022/09/17 00:37:05;;;;;;;8.75;2.10;;;;;;;;;;5030944;28;20489;-60
2022/09/17 00:39:31;;;;;;;5.43;1.80;;;;;;;;;;5032020;28;20029;-61
2022/09/17 00:41:57;;;;;;;3.53;1.30;;;;;;;;;;5030971;28;20530;-60
2022/09/17 00:44:42;;;;;;;7.72;1.45;;;;;;;;;;5025889;28;20038;-61
2022/09/17 00:47:19;;;;;;;7.22;1.60;;;;;;;;;;5029741;28;20033;-61
2022/09/17 00:49:47;;;;;;;4.25;1.70;;;;;;;;;;5031619;28;20108;-61
2022/09/17 00:52:14;;;;;;;6.57;1.17;;;;;;;;;;5026749;28;20064;-61
2022/09/17 00:54:44;;;;;;;8.27;1.65;;;;;;;;;;5031042;28;20027;-60
2022/09/17 00:57:10;;;;;;;5.57;1.55;;;;;;;;;;5030031;28;20021;-60
2022/09/17 00:59:36;;;;;;;3.67;1.40;;;;;;;;;;5025295;28;20040;-61
2022/09/17 01:02:02;;;;;;;7.15;1.58;;;;;;;;;;5030766;28;20429;-61
2022/09/17 01:04:28;;;;;;;7.80;2.25;;;;;;;;;;5029757;28;20104;-60
2022/09/17 01:07:04;;;;;;;8.95;1.85;;;;;;;;;;5031002;28;20496;-61
2022/09/17 01:09:43;;;;;;;7.85;1.52;;;;;;;;;;5030640;28;20596;-61
2022/09/17 01:12:29;;;;;;;10.25;2.25;;;;;;;;;;5030967;28;20505;-61
2022/09/17 01:15:14;;;;;;;8.07;1.83;;;;;;;;;;5030789;28;20064;-60
2022/09/17 01:17:44;;;;;;;6.57;1.83;;;;;;;;;;5030092;28;20038;-61
2022/09/17 01:20:28;;;;;;;13.50;1.73;;;;;;;;;;5028069;28;20037;-61
2022/09/17 01:22:59;;;;;;;10.20;1.90;;;;;;;;;;5027855;28;20034;-61
2022/09/17 01:25:31;;;;;;;4.43;1.60;;;;;;;;;;5030934;28;20481;-61
2022/09/17 01:28:16;;;;;;;4.82;1.67;;;;;;;;;;5029361;28;20053;-61
2022/09/17 01:30:51;;;;;;;5.45;1.55;;;;;;;;;;5030443;28;20100;-60
2022/09/17 01:33:22;;;;;;;6.47;1.50;;;;;;;;;;5030741;28;20030;-61
2022/09/17 01:36:04;;;;;;;6.45;1.50;;;;;;;;;;5030724;28;20026;-60
2022/09/17 01:38:34;;;;;;;6.95;1.40;;;;;;;;;;5028532;28;20026;-61
2022/09/17 01:41:06;;;;;;;6.55;1.30;;;;;;;;;;5030349;28;20079;-61
2022/09/17 01:43:37;;;;;;;6.80;1.35;;;;;;;;;;5030763;28;20481;-61
2022/09/17 01:46:09;;;;;;;5.97;1.30;;;;;;;;;;5030625;28;20477;-60
2022/09/17 01:48:39;;;;;;;8.02;1.40;;;;;;;;;;5030102;28;20564;-61
2022/09/17 01:51:07;;;;;;;6.30;1.80;;;;;;;;;;5030082;28;20325;-61
2022/09/17 01:53:56;;;;;;;7.60;1.35;;;;;;;;;;5029179;28;20019;-60
2022/09/17 01:56:23;;;;;;;6.10;1.77;;;;;;;;;;5028990;28;20429;-60
2022/09/17 01:58:59;;;;;;;5.53;1.35;;;;;;;;;;5032934;28;20036;-61
2022/09/17 02:01:29;;;;;;;4.63;1.45;;;;;;;;;;5033831;28;20044;-61
2022/09/17 02:04:21;;;;;;;6.80;1.63;;;;;;;;;;5034535;28;20021;-61
2022/09/17 02:06:51;;;;;;;7.07;1.63;;;;;;;;;;5029833;28;20095;-60
2022/09/17 02:09:19;;;;;;;7.03;1.95;;;;;;;;;;5031835;28;20026;-60
2022/09/17 02:11:49;;;;;;;9.27;1.70;;;;;;;;;;5032750;28;20809;-61
2022/09/17 02:14:17;;;;;;;6.75;1.90;;;;;;;;;;5021601;28;20533;-61
2022/09/17 02:16:55;;;;;;;5.97;1.55;;;;;;;;;;5032576;28;20172;-61
2022/09/17 02:19:32;;;;;;;10.52;2.28;;;;;;;;;;5027952;28;20045;-61
2022/09/17 02:22:04;;;;;;;6.43;1.83;;;;;;;;;;5033541;28;20103;-61
2022/09/17 02:24:44;;;;;;;6.25;1.40;;;;;;;;;;5034001;28;20045;-60
2022/09/17 02:27:16;;;;;;;7.05;1.98;;;;;;;;;;5024295;28;20029;-60
2022/09/17 02:29:43;;;;;;;7.78;1.70;;;;;;;;;;5032766;28;20037;-61
2022/09/17 02:32:10;;;;;;;5.30;1.45;;;;;;;;;;5033796;28;20461;-61
2022/09/17 02:34:36;;;;;;;5.00;1.50;;;;;;;;;;5033626;28;20032;-61
2022/09/17 02:37:03;;;;;;;15.90;2.05;;;;;;;;;;5033071;28;20033;-61
2022/09/17 02:39:29;;;;;;;8.63;1.65;;;;;;;;;;5033091;28;20029;-61
2022/09/17 02:42:16;;;;;;;10.40;2.35;;;;;;;;;;5033247;28;20037;-60
2022/09/17 02:44:50;;;;;;;7.45;1.88;;;;;;;;;;5032063;28;20033;-61
2022/09/17 02:47:28;;;;;;;6.93;1.52;;;;;;;;;;5033310;28;20084;-61
2022/09/17 02:50:18;;;;;;;6.97;1.90;;;;;;;;;;5032559;28;20044;-61
2022/09/17 02:52:57;;;;;;;11.35;2.53;;;;;;;;;;5026153;28;20038;-60
2022/09/17 02:55:28;;;;;;;6.60;2.55;;;;;;;;;;5033134;28;20838;-61
2022/09/17 02:58:00;;;;;;;6.57;1.65;;;;;;;;;;5031929;28;20039;-61
2022/09/17 03:00:27;;;;;;;7.40;1.70;;;;;;;;;;5032801;28;20025;-61
2022/09/17 03:03:08;;;;;;;8.52;1.88;;;;;;;;;;5031702;28;20038;-61
2022/09/17 03:05:35;;;;;;;10.90;1.95;;;;;;;;;;5033387;28;20076;-61
2022/09/17 03:08:01;;;;;;;12.40;2.22;;;;;;;;;;5031519;28;20033;-61
2022/09/17 03:10:32;;;;;;;11.82;2.25;;;;;;;;;;5032804;28;20044;-61
2022/09/17 03:12:58;;;;;;;6.47;1.35;;;;;;;;;;5020575;28;20030;-61
2022/09/17 03:15:24;;;;;;;7.88;1.60;;;;;;;;;;5033238;28;20032;-61
2022/09/17 03:17:50;;;;;;;11.38;1.67;;;;;;;;;;5022358;28;20030;-61
2022/09/17 03:20:17;;;;;;;7.13;1.48;;;;;;;;;;5030880;28;20040;-61
2022/09/17 03:22:43;;;;;;;5.45;2.00;;;;;;;;;;5032823;28;20021;-61
2022/09/17 03:25:09;;;;;;;6.07;2.00;;;;;;;;;;5032936;28;20037;-61
2022/09/17 03:27:35;;;;;;;8.38;1.90;;;;;;;;;;5023315;28;20674;-61
2022/09/17 03:30:01;;;;;;;9.75;2.30;;;;;;;;;;5031494;28;20033;-61
2022/09/17 03:32:27;;;;;;;8.27;1.48;;;;;;;;;;5032271;28;20432;-61
2022/09/17 03:34:53;;;;;;;7.90;1.70;;;;;;;;;;5031020;28;20018;-60
2022/09/17 03:37:19;;;;;;;9.35;1.80;;;;;;;;;;5032536;28;20029;-61
2022/09/17 03:39:45;;;;;;;14.73;2.42;;;;;;;;;;5031521;28;20107;-61
2022/09/17 03:42:11;;;;;;;6.38;1.60;;;;;;;;;;5032614;28;20048;-60
2022/09/17 03:44:37;;;;;;;6.75;2.08;;;;;;;;;;5032292;28;20029;-61
2022/09/17 03:47:03;;;;;;;5.75;1.58;;;;;;;;;;5032394;28;20045;-61
2022/09/17 03:49:29;;;;;;;5.53;1.50;;;;;;;;;;5031493;28;20128;-61
2022/09/17 03:51:55;;;;;;;9.45;1.55;;;;;;;;;;5030507;28;20026;-61
2022/09/17 03:54:21;;;;;;;8.23;1.92;;;;;;;;;;5031854;28;20022;-61
2022/09/17 03:56:47;;;;;;;6.40;1.70;;;;;;;;;;5031712;28;20532;-61
2022/09/17 03:59:13;;;;;;;8.80;1.50;;;;;;;;;;5031279;28;20075;-61
2022/09/17 04:01:39;;;;;;;6.50;1.33;;;;;;;;;;5031824;28;20037;-61
2022/09/17 04:04:06;;;;;;;6.82;1.73;;;;;;;;;;5032018;28;20033;-61
2022/09/17 04:06:32;;;;;;;5.88;1.52;;;;;;;;;;5014450;28;20028;-61
2022/09/17 04:08:59;;;;;;;8.10;1.85;;;;;;;;;;5029470;28;20025;-61
2022/09/17 04:11:25;;;;;;;13.45;2.58;;;;;;;;;;5028132;28;20033;-60
2022/09/17 04:13:51;;;;;;;7.03;1.42;;;;;;;;;;5022951;28;20032;-61
2022/09/17 04:16:17;;;;;;;6.93;1.45;;;;;;;;;;5032026;28;20386;-60
2022/09/17 04:18:43;;;;;;;7.10;1.65;;;;;;;;;;5030050;28;20056;-60
2022/09/17 04:21:09;;;;;;;7.82;1.50;;;;;;;;;;5031377;28;20033;-60
2022/09/17 04:23:35;;;;;;;8.10;2.00;;;;;;;;;;5031722;28;20029;-61
2022/09/17 04:26:01;;;;;;;5.68;1.52;;;;;;;;;;5029535;28;20029;-61
2022/09/17 04:28:27;;;;;;;4.90;1.48;;;;;;;;;;5021553;28;20021;-61
2022/09/17 04:30:53;;;;;;;9.82;2.00;;;;;;;;;;5031073;28;20072;-61
2022/09/17 04:33:19;;;;;;;4.55;1.63;;;;;;;;;;5031126;28;20488;-60
2022/09/17 04:35:45;;;;;;;4.20;1.50;;;;;;;;;;5027296;28;20021;-61
2022/09/17 04:38:17;;;;;;;5.15;1.80;;;;;;;;;;5030264;28;20056;-61
2022/09/17 04:40:43;;;;;;;8.63;1.88;;;;;;;;;;5031318;28;20105;-61
2022/09/17 04:43:09;;;;;;;11.57;1.77;;;;;;;;;;5029730;28;20025;-61
2022/09/17 04:45:35;;;;;;;9.80;2.00;;;;;;;;;;5019518;28;20029;-60
2022/09/17 04:48:01;;;;;;;8.27;1.67;;;;;;;;;;5030509;28;20052;-61
2022/09/17 04:50:27;;;;;;;8.10;2.30;;;;;;;;;;5030278;28;20100;-61
2022/09/17 04:52:53;;;;;;;8.75;1.55;;;;;;;;;;5031365;28;20446;-60
2022/09/17 04:55:19;;;;;;;8.80;2.55;;;;;;;;;;5031242;28;20496;-61
2022/09/17 04:57:47;;;;;;;12.60;2.38;;;;;;;;;;5030067;28;20141;-60
2022/09/17 05:00:14;;;;;;;9.00;1.98;;;;;;;;;;5029014;28;20030;-61
2022/09/17 05:02:40;;;;;;;7.63;1.90;;;;;;;;;;5031171;28;20057;-60
2022/09/17 05:05:06;;;;;;;8.30;2.00;;;;;;;;;;5031129;28;20104;-61
2022/09/17 05:07:31;;;;;;;4.05;1.60;;;;;;;;;;5030514;28;20041;-61
2022/09/17 05:09:57;;;;;;;12.20;2.22;;;;;;;;;;5012988;28;20033;-61
2022/09/17 05:12:23;;;;;;;6.80;1.88;;;;;;;;;;5030899;28;20017;-61
2022/09/17 05:14:49;;;;;;;10.82;2.42;;;;;;;;;;5030890;28;20026;-61
2022/09/17 05:17:16;;;;;;;6.03;1.83;;;;;;;;;;5028973;28;20049;-61
2022/09/17 05:19:42;;;;;;;9.88;3.08;;;;;;;;;;5029930;28;20049;-61
2022/09/17 05:22:07;;;;;;;6.60;1.88;;;;;;;;;;5030814;28;20033;-61
2022/09/17 05:24:38;;;;;;;9.52;3.03;;;;;;;;;;5031022;28;20030;-61
2022/09/17 05:27:04;;;;;;;4.22;1.90;;;;;;;;;;5030073;28;20033;-61
2022/09/17 05:29:30;;;;;;;9.25;2.30;;;;;;;;;;5031185;28;20037;-61
2022/09/17 05:31:55;;;;;;;8.00;2.00;;;;;;;;;;5033348;28;20116;-61
2022/09/17 05:34:21;;;;;;;8.35;2.30;;;;;;;;;;5017028;28;20025;-61
2022/09/17 05:36:48;;;;;;;10.95;2.10;;;;;;;;;;5034318;28;20079;-61
2022/09/17 05:39:14;;;;;;;9.50;2.38;;;;;;;;;;5034267;28;20026;-61
2022/09/17 05:41:40;;;;;;;9.60;2.15;;;;;;;;;;5034422;28;20366;-61
2022/09/17 05:44:06;;;;;;;16.30;2.90;;;;;;;;;;5034398;28;20032;-61
2022/09/17 05:46:32;;;;;;;10.77;2.05;;;;;;;;;;5033519;28;20511;-61
2022/09/17 05:48:58;;;;;;;10.32;2.50;;;;;;;;;;5032341;28;20033;-61
2022/09/17 05:51:24;;;;;;;10.70;2.97;;;;;;;;;;5021895;28;20029;-61
2022/09/17 05:53:50;;;;;;;12.43;2.78;;;;;;;;;;5034479;28;20017;-60
2022/09/17 05:56:16;;;;;;;17.67;3.28;;;;;;;;;;5030519;28;20025;-60
2022/09/17 05:58:42;;;;;;;16.60;3.30;;;;;;;;;;5031948;28;20029;-61
2022/09/17 06:01:08;;;;;;;18.80;3.53;;;;;;;;;;5032503;28;20087;-61
2022/09/17 06:03:34;;;;;;;11.10;2.92;;;;;;;;;;5034584;28;20493;-61
2022/09/17 06:06:00;;;;;;;10.10;3.00;;;;;;;;;;5015227;28;20048;-61
2022/09/17 06:08:26;;;;;;;18.98;3.50;;;;;;;;;;5031938;28;20041;-61
2022/09/17 06:10:52;;;;;;;14.05;3.65;;;;;;;;;;5033424;28;20029;-61
2022/09/17 06:13:19;;;;;;;16.40;4.47;;;;;;;;;;5034015;28;20092;-61
2022/09/17 06:15:51;;;;;;;20.05;3.72;;;;;;;;;;5033654;28;20021;-61
2022/09/17 06:18:17;;;;;;;16.97;3.93;;;;;;;;;;5026847;28;20049;-61
2022/09/17 06:20:43;;;;;;;12.45;3.67;;;;;;;;;;5032339;28;20459;-61
2022/09/17 06:23:09;;;;;;;16.77;3.28;;;;;;;;;;5030132;28;20104;-61
2022/09/17 06:25:35;;;;;;;15.88;3.63;;;;;;;;;;5034050;28;20044;-61
2022/09/17 06:28:02;;;;;;;15.32;3.38;;;;;;;;;;5033144;28;20037;-61
2022/09/17 06:30:28;;;;;;;16.17;3.28;;;;;;;;;;5030494;28;20047;-61
2022/09/17 06:32:54;;;;;;;16.10;3.70;;;;;;;;;;5033125;28;20037;-61
2022/09/17 06:35:20;;;;;;;12.60;2.95;;;;;;;;;;5032292;28;20037;-61
2022/09/17 06:37:45;;;;;;;20.20;3.67;;;;;;;;;;5029074;28;20026;-61
2022/09/17 06:40:12;;;;;;;18.58;4.38;;;;;;;;;;5033116;28;20029;-61
2022/09/17 06:42:38;;;;;;;19.08;3.13;;;;;;;;;;5027357;28;20035;-61
2022/09/17 06:45:04;;;;;;;12.95;3.00;;;;;;;;;;5030594;28;20393;-61
2022/09/17 06:47:30;;;;;;;11.98;2.45;;;;;;;;;;5024517;28;20022;-60
2022/09/17 06:49:58;;;;;;;14.57;3.05;;;;;;;;;;5024909;28;20551;-61
2022/09/17 06:52:24;;;;;;;18.05;2.80;;;;;;;;;;5025007;28;20626;-61
2022/09/17 06:54:50;;;;;;;13.18;2.90;;;;;;;;;;5024148;28;20029;-61
2022/09/17 06:57:16;;;;;;;18.25;2.80;;;;;;;;;;5032044;28;20041;-61
2022/09/17 06:59:42;;;;;;;12.05;2.65;;;;;;;;;;5031399;28;20030;-61
2022/09/17 07:02:09;;;;;;;15.65;2.30;;;;;;;;;;5033407;28;20033;-61
2022/09/17 07:04:35;;;;;;;13.15;2.78;;;;;;;;;;5027183;28;20102;-61
2022/09/17 07:07:00;;;;;;;12.93;2.60;;;;;;;;;;5024749;28;20026;-61
2022/09/17 07:09:26;;;;;;;12.43;2.03;;;;;;;;;;5031440;28;20321;-61
2022/09/17 07:11:52;;;;;;;17.35;2.40;;;;;;;;;;5023423;28;20030;-61
2022/09/17 07:14:19;;;;;;;10.05;2.10;;;;;;;;;;5025231;28;20037;-61
2022/09/17 07:16:45;;;;;;;12.32;2.97;;;;;;;;;;5028400;28;20101;-61
2022/09/17 07:19:11;;;;;;;14.93;2.70;;;;;;;;;;5031446;28;20057;-61
2022/09/17 07:21:37;;;;;;;13.98;2.53;;;;;;;;;;5026381;28;20033;-61
2022/09/17 07:24:03;;;;;;;11.07;2.50;;;;;;;;;;5032920;28;20032;-61
2022/09/17 07:26:29;;;;;;;15.23;2.95;;;;;;;;;;5032891;28;20103;-61
2022/09/17 07:28:55;;;;;;;13.45;2.17;;;;;;;;;;5032778;28;20400;-61
2022/09/17 07:31:22;;;;;;;18.65;2.75;;;;;;;;;;5032564;28;20034;-61
2022/09/17 07:33:48;;;;;;;12.88;2.28;;;;;;;;;;5033056;28;20033;-61
2022/09/17 07:36:16;;;;;;;14.05;2.13;;;;;;;;;;5031063;28;20393;-62
2022/09/17 07:38:42;;;;;;;14.02;2.00;;;;;;;;;;5032642;28;20105;-61
2022/09/17 07:41:13;;;;;;;10.85;2.50;;;;;;;;;;5023527;28;20022;-61
2022/09/17 07:43:39;;;;;;;14.85;2.45;;;;;;;;;;5032744;28;20022;-61
2022/09/17 07:46:06;;;;;;;12.18;2.40;;;;;;;;;;5032647;28;20026;-62
2022/09/17 07:48:32;;;;;;;13.98;2.92;;;;;;;;;;5032596;28;20033;-62
2022/09/17 07:50:58;;;;;;;13.98;2.20;;;;;;;;;;5030150;28;20034;-61
2022/09/17 07:53:24;;;;;;;15.57;2.15;;;;;;;;;;5031669;28;20036;-61
2022/09/17 07:56:00;;;;;;;13.75;2.10;;;;;;;;;;5032361;28;20503;-62
2022/09/17 07:58:30;;;;;;;11.27;2.00;;;;;;;;;;5032274;28;20022;-62
2022/09/17 08:01:02;;;;;;;10.05;2.30;;;;;;;;;;5031194;28;20026;-61
2022/09/17 08:03:29;;;;;;;3.75;1.30;;;;;;;;;;5032063;28;20033;-62
2022/09/17 08:06:01;;;;;;;8.98;2.13;;;;;;;;;;5031931;28;20124;-62
2022/09/17 08:08:27;;;;;;;13.00;2.20;;;;;;;;;;5030924;28;20501;-61
2022/09/17 08:10:54;;;;;;;17.80;2.88;;;;;;;;;;5031671;28;20071;-62
2022/09/17 08:13:20;;;;;;;12.18;1.88;;;;;;;;;;5031945;28;20598;-62
2022/09/17 08:15:46;;;;;;;13.82;2.25;;;;;;;;;;5025515;28;20545;-61
2022/09/17 08:18:15;;;;;;;10.75;2.22;;;;;;;;;;5028893;28;20076;-62
2022/09/17 08:20:41;;;;;;;12.82;2.65;;;;;;;;;;5023644;28;20035;-61
2022/09/17 08:23:07;;;;;;;7.30;2.13;;;;;;;;;;5031842;28;20469;-62
2022/09/17 08:25:33;;;;;;;10.48;2.33;;;;;;;;;;5030237;28;20033;-62
2022/09/17 08:27:59;;;;;;;9.07;2.55;;;;;;;;;;5031437;28;20481;-62
2022/09/17 08:30:25;;;;;;;17.75;2.83;;;;;;;;;;5026333;28;20025;-61
2022/09/17 08:32:51;;;;;;;10.80;2.90;;;;;;;;;;5031418;28;20052;-61
2022/09/17 08:35:17;;;;;;;16.80;2.42;;;;;;;;;;5031848;28;20022;-62
2022/09/17 08:37:43;;;;;;;12.35;2.83;;;;;;;;;;5031657;28;20095;-62
2022/09/17 08:40:18;;;;;;;9.95;2.50;;;;;;;;;;5031311;28;20021;-62
2022/09/17 08:42:50;;;;;;;10.38;1.90;;;;;;;;;;5030054;28;20032;-62
2022/09/17 08:45:18;;;;;;;9.85;2.05;;;;;;;;;;5031401;28;20540;-62
2022/09/17 08:47:45;;;;;;;10.88;2.13;;;;;;;;;;5031201;28;20104;-62
2022/09/17 08:50:17;;;;;;;12.18;2.10;;;;;;;;;;5026958;28;20890;-61
2022/09/17 08:52:48;;;;;;;17.23;2.55;;;;;;;;;;5031504;28;20026;-62
2022/09/17 08:55:23;;;;;;;9.50;1.80;;;;;;;;;;5032456;28;20025;-61
2022/09/17 08:57:52;;;;;;;10.57;2.22;;;;;;;;;;5029292;28;20036;-62
2022/09/17 09:00:19;;;;;;;9.93;1.73;;;;;;;;;;5027978;28;20029;-62
2022/09/17 09:02:45;;;;;;;9.07;1.90;;;;;;;;;;5027620;28;20026;-61
2022/09/17 09:05:16;;;;;;;12.75;2.40;;;;;;;;;;5027418;28;20103;-62
2022/09/17 09:07:44;;;;;;;10.13;2.30;;;;;;;;;;5031254;28;20481;-62
2022/09/17 09:10:16;;;;;;;10.38;1.80;;;;;;;;;;5030930;28;20489;-61
2022/09/17 09:12:43;;;;;;;8.70;2.40;;;;;;;;;;5031021;28;20029;-61
2022/09/17 09:15:22;;;;;;;9.35;2.00;;;;;;;;;;5011750;28;20075;-61
2022/09/17 09:17:49;;;;;;;11.57;1.98;;;;;;;;;;5030568;28;20537;-61
2022/09/17 09:20:17;;;;;;;9.65;1.70;;;;;;;;;;5025449;28;20473;-61
2022/09/17 09:22:48;;;;;;;8.93;1.73;;;;;;;;;;5030243;28;20037;-62
2022/09/17 09:25:22;;;;;;;8.60;1.48;;;;;;;;;;5018504;28;20069;-61
2022/09/17 09:28:00;;;;;;;10.45;1.58;;;;;;;;;;5030946;28;20037;-62
2022/09/17 09:30:27;;;;;;;7.40;1.70;;;;;;;;;;5029339;28;20485;-61
2022/09/17 09:32:56;;;;;;;7.15;1.67;;;;;;;;;;5030608;28;20033;-61
2022/09/17 09:35:24;;;;;;;10.30;1.83;;;;;;;;;;5030933;28;20083;-61
2022/09/17 09:37:59;;;;;;;10.55;2.30;;;;;;;;;;5030858;28;20033;-62
2022/09/17 09:40:43;;;;;;;9.82;1.85;;;;;;;;;;5030633;28;20116;-61
2022/09/17 09:43:17;;;;;;;11.95;1.80;;;;;;;;;;5031016;28;20030;-61
2022/09/17 09:45:48;;;;;;;13.13;2.05;;;;;;;;;;5030791;28;20071;-61
2022/09/17 09:48:22;;;;;;;13.30;2.42;;;;;;;;;;5029154;28;20083;-61
2022/09/17 09:51:07;;;;;;;9.82;1.80;;;;;;;;;;5021830;28;20029;-61
2022/09/17 09:53:51;;;;;;;9.88;2.15;;;;;;;;;;5030655;28;20029;-61
2022/09/17 09:56:29;;;;;;;11.93;1.73;;;;;;;;;;5030613;28;20018;-61
2022/09/17 09:58:55;;;;;;;9.43;1.85;;;;;;;;;;5030810;28;20021;-61
2022/09/17 10:01:21;;;;;;;8.30;2.00;;;;;;;;;;5030462;28;20032;-62
2022/09/17 10:03:50;;;;;;;12.48;1.80;;;;;;;;;;5029038;28;20021;-61
2022/09/17 10:06:18;;;;;;;7.25;1.90;;;;;;;;;;5030732;28;20037;-61
2022/09/17 10:08:50;;;;;;;8.45;1.40;;;;;;;;;;5030458;28;20029;-62
2022/09/17 10:11:20;;;;;;;9.45;1.95;;;;;;;;;;5030282;28;20504;-61
2022/09/17 10:13:46;;;;;;;10.10;1.95;;;;;;;;;;5017885;28;20033;-61
2022/09/17 10:16:16;;;;;;;10.52;1.73;;;;;;;;;;5032010;28;20029;-61
2022/09/17 10:18:43;;;;;;;13.10;1.90;;;;;;;;;;5027316;28;20504;-61
2022/09/17 10:21:18;;;;;;;7.38;1.52;;;;;;;;;;5031434;28;20536;-61
2022/09/17 10:23:45;;;;;;;10.23;1.58;;;;;;;;;;5023110;28;20028;-61
2022/09/17 10:26:23;;;;;;;8.18;1.38;;;;;;;;;;5034006;28;20025;-62
2022/09/17 10:28:50;;;;;;;9.88;1.83;;;;;;;;;;5034198;28;20075;-62
2022/09/17 10:31:16;;;;;;;8.23;1.52;;;;;;;;;;5022739;28;20057;-61
2022/09/17 10:33:52;;;;;;;5.85;1.50;;;;;;;;;;5033235;28;20112;-61
2022/09/17 10:36:36;;;;;;;8.10;1.98;;;;;;;;;;5033980;28;20025;-62
2022/09/17 10:39:18;;;;;;;8.20;1.70;;;;;;;;;;5024274;28;20109;-61
2022/09/17 10:41:58;;;;;;;9.00;1.58;;;;;;;;;;5032965;28;20048;-62
2022/09/17 10:44:25;;;;;;;5.25;1.42;;;;;;;;;;5033647;28;20037;-62
2022/09/17 10:46:51;;;;;;;11.05;1.80;;;;;;;;;;5014394;28;20129;-61
2022/09/17 10:49:29;;;;;;;8.85;2.00;;;;;;;;;;5033653;28;20071;-61
2022/09/17 10:52:05;;;;;;;11.10;1.88;;;;;;;;;;5031426;28;20555;-61
2022/09/17 10:54:50;;;;;;;9.88;1.60;;;;;;;;;;5021056;28;20030;-61
2022/09/17 10:57:22;;;;;;;10.38;1.70;;;;;;;;;;5033750;28;20548;-61
2022/09/17 10:59:55;;;;;;;10.30;1.10;;;;;;;;;;5031604;28;20473;-61
2022/09/17 11:02:45;;;;;;;9.70;1.20;;;;;;;;;;5033705;28;20069;-62
2022/09/17 11:05:25;;;;;;;9.38;1.27;;;;;;;;;;5033608;28;20033;-61
2022/09/17 11:08:07;;;;;;;4.85;1.45;;;;;;;;;;5032056;28;20484;-61
2022/09/17 11:10:37;;;;;;;8.52;1.80;;;;;;;;;;5031588;28;20060;-61
2022/09/17 11:13:03;;;;;;;4.53;0.98;;;;;;;;;;5025558;28;20063;-61
2022/09/17 11:15:33;;;;;;;11.23;1.58;;;;;;;;;;5031637;28;20473;-62
2022/09/17 11:18:17;;;;;;;11.63;1.95;;;;;;;;;;5027504;28;20041;-62
2022/09/17 11:20:57;;;;;;;6.45;1.27;;;;;;;;;;5028402;28;20444;-61
2022/09/17 11:23:48;;;;;;;8.80;1.65;;;;;;;;;;5025429;28;20056;-61
2022/09/17 11:26:24;;;;;;;9.20;1.33;;;;;;;;;;5024483;28;20044;-61
2022/09/17 11:29:28;;;;;;;8.93;1.63;;;;;;;;;;5031761;28;20508;-61
2022/09/17 11:32:06;;;;;;;6.47;1.63;;;;;;;;;;4999506;28;20042;-61
2022/09/17 11:34:38;;;;;;;6.10;1.00;;;;;;;;;;5030689;28;20033;-62
2022/09/17 11:37:14;;;;;;;9.73;1.67;;;;;;;;;;5032607;28;20504;-61
2022/09/17 11:39:54;;;;;;;10.75;2.10;;;;;;;;;;5030845;28;20031;-61
2022/09/17 11:42:41;;;;;;;7.68;1.27;;;;;;;;;;5030779;28;20033;-61
2022/09/17 11:45:14;;;;;;;9.18;1.10;;;;;;;;;;5025509;28;20021;-61
2022/09/17 11:47:42;;;;;;;5.10;1.17;;;;;;;;;;5028833;28;20103;-61
2022/09/17 11:50:19;;;;;;;7.70;0.98;;;;;;;;;;5028703;28;20521;-61
2022/09/17 11:53:04;;;;;;;7.32;1.05;;;;;;;;;;5028277;28;20037;-61
2022/09/17 11:55:42;;;;;;;9.48;1.20;;;;;;;;;;5028961;28;20026;-61
2022/09/17 11:58:32;;;;;;;4.93;1.33;;;;;;;;;;5025242;28;20029;-61
2022/09/17 12:01:00;;;;;;;4.38;0.85;;;;;;;;;;5026725;28;20076;-62
2022/09/17 12:03:36;;;;;;;6.25;1.20;;;;;;;;;;5029747;28;20112;-62
2022/09/17 12:06:28;;;;;;;6.03;1.15;;;;;;;;;;5025507;28;20100;-61
2022/09/17 12:09:09;;;;;;;4.38;0.80;;;;;;;;;;5021068;28;20099;-61
2022/09/17 12:11:52;;;;;;;5.20;0.80;;;;;;;;;;5023238;28;20069;-61
2022/09/17 12:14:28;;;;;;;6.70;1.17;;;;;;;;;;5010365;28;20388;-61
2022/09/17 12:16:59;;;;;;;4.65;0.98;;;;;;;;;;5031164;28;20017;-62
2022/09/17 12:19:31;;;;;;;9.05;0.90;;;;;;;;;;5029268;28;20444;-61
2022/09/17 12:22:04;;;;;;;3.95;0.77;;;;;;;;;;5031580;28;20052;-61
2022/09/17 12:24:33;;;;;;;3.90;0.70;;;;;;;;;;5019728;28;20508;-61
2022/09/17 12:26:59;;;;;;;2.58;0.65;;;;;;;;;;5023913;28;20046;-61
2022/09/17 12:29:28;;;;;;;5.15;1.00;;;;;;;;;;5028549;28;20039;-62
2022/09/17 12:32:02;;;;;;;5.20;1.10;;;;;;;;;;5029298;28;20428;-59
2022/09/17 12:34:46;;;;;;;4.13;0.70;;;;;;;;;;5028171;28;20093;-61
2022/09/17 12:37:23;;;;;;;4.13;0.90;;;;;;;;;;5031513;28;20029;-59
2022/09/17 12:40:03;;;;;;;4.10;0.82;;;;;;;;;;5018997;28;20031;-59
2022/09/17 12:42:35;;;;;;;2.97;0.70;;;;;;;;;;5030865;28;20057;-59
2022/09/17 12:45:13;;;;;;;4.18;0.93;;;;;;;;;;5020036;28;20043;-59
2022/09/17 12:47:58;;;;;;;5.90;0.93;;;;;;;;;;5024373;28;20107;-61
2022/09/17 12:50:24;;;;;;;2.72;0.75;;;;;;;;;;5021492;28;20112;-61
2022/09/17 12:53:02;;;;;;;2.75;0.55;;;;;;;;;;5018573;28;20051;-62
2022/09/17 12:55:35;;;;;;;2.15;0.50;;;;;;;;;;5018317;28;20025;-62
2022/09/17 12:58:25;;;;;;;5.38;0.85;;;;;;;;;;5027625;28;20024;-60
2022/09/17 13:01:10;;;;;;;2.28;0.85;;;;;;;;;;5021007;28;20055;-59
2022/09/17 13:03:40;;;;;;;4.57;1.15;;;;;;;;;;5024009;28;20441;-60
2022/09/17 13:06:14;;;;;;;3.30;0.60;;;;;;;;;;5024225;28;20029;-59
2022/09/17 13:08:59;;;;;;;5.75;0.98;;;;;;;;;;5026230;28;20056;-59
2022/09/17 13:11:37;;;;;;;3.00;0.90;;;;;;;;;;5018980;28;20483;-59
2022/09/17 13:14:23;;;;;;;5.28;0.60;;;;;;;;;;5021276;28;20026;-59
2022/09/17 13:17:02;;;;;;;3.60;0.63;;;;;;;;;;5025946;28;20024;-59
2022/09/17 13:19:33;;;;;;;3.90;0.68;;;;;;;;;;5023657;28;20054;-59
2022/09/17 13:22:15;;;;;;;4.00;0.68;;;;;;;;;;5021106;28;20032;-60
2022/09/17 13:24:43;;;;;;;3.03;0.80;;;;;;;;;;5023424;28;20053;-59
2022/09/17 13:27:20;;;;;;;5.15;0.68;;;;;;;;;;5022426;28;20075;-59
2022/09/17 13:29:46;;;;;;;5.00;1.00;;;;;;;;;;5021870;28;20079;-59
2022/09/17 13:32:31;;;;;;;3.47;0.82;;;;;;;;;;5029435;28;20034;-59
2022/09/17 13:34:57;;;;;;;5.30;0.90;;;;;;;;;;5027441;28;20037;-59
2022/09/17 13:37:23;;;;;;;5.50;0.77;;;;;;;;;;5029314;28;20469;-59
2022/09/17 13:39:50;;;;;;;3.65;1.13;;;;;;;;;;5026325;28;20021;-59
2022/09/17 13:42:21;;;;;;;3.38;0.75;;;;;;;;;;5027241;28;20042;-59
2022/09/17 13:45:02;;;;;;;6.57;0.98;;;;;;;;;;5026571;28;20066;-59
2022/09/17 13:47:30;;;;;;;3.30;0.80;;;;;;;;;;5018183;28;20029;-59
2022/09/17 13:50:08;;;;;;;5.85;0.80;;;;;;;;;;5029059;28;20476;-59
2022/09/17 13:52:36;;;;;;;7.57;0.82;;;;;;;;;;5029807;28;20441;-59
2022/09/17 13:55:03;;;;;;;4.22;0.80;;;;;;;;;;5031938;28;20086;-59
2022/09/17 13:57:32;;;;;;;4.93;0.68;;;;;;;;;;5034776;28;20072;-60
2022/09/17 13:59:59;;;;;;;4.88;1.00;;;;;;;;;;5034072;28;20027;-60
2022/09/17 14:02:33;;;;;;;4.85;0.80;;;;;;;;;;5029761;28;20087;-59
2022/09/17 14:05:18;;;;;;;4.82;0.75;;;;;;;;;;5026929;28;20613;-60
2022/09/17 14:07:46;;;;;;;4.82;0.85;;;;;;;;;;5029351;28;20030;-60
2022/09/17 14:10:14;;;;;;;5.82;1.40;;;;;;;;;;5031464;28;20028;-59
2022/09/17 14:12:43;;;;;;;9.10;1.30;;;;;;;;;;5025490;28;20025;-60
2022/09/17 14:15:27;;;;;;;9.63;1.20;;;;;;;;;;5033196;28;20025;-62
2022/09/17 14:17:53;;;;;;;4.40;0.93;;;;;;;;;;5027629;28;20038;-61
2022/09/17 14:20:20;;;;;;;3.67;1.10;;;;;;;;;;5030160;28;20025;-60
2022/09/17 14:23:00;;;;;;;9.27;0.75;;;;;;;;;;5025510;28;20029;-62
2022/09/17 14:25:38;;;;;;;2.83;0.45;;;;;;;;;;5030387;28;20028;-61
2022/09/17 14:28:11;;;;;;;3.10;0.52;;;;;;;;;;5027035;28;20041;-62
2022/09/17 14:30:37;;;;;;;4.13;0.70;;;;;;;;;;5027949;28;20386;-61
2022/09/17 14:33:06;;;;;;;3.03;0.68;;;;;;;;;;5028166;28;20384;-62
2022/09/17 14:35:42;;;;;;;2.38;0.40;;;;;;;;;;5027809;28;20026;-61
2022/09/17 14:38:12;;;;;;;1.85;0.38;;;;;;;;;;5027575;28;20027;-61
2022/09/17 14:40:49;;;;;;;1.67;0.20;;;;;;;;;;5029512;28;20021;-62
2022/09/17 14:43:21;;;;;;;2.67;0.35;;;;;;;;;;5031034;28;20087;-62
2022/09/17 14:45:49;;;;;;;1.92;0.40;;;;;;;;;;5026575;28;20037;-59
2022/09/17 14:48:21;;;;;;;0.57;0.20;;;;;;;;;;5029051;28;20034;-62
2022/09/17 14:50:47;;;;;;;2.75;0.35;;;;;;;;;;5027893;28;20104;-61
2022/09/17 14:53:17;;;;;;;1.95;0.47;;;;;;;;;;5027898;28;20392;-62
2022/09/17 14:55:44;;;;;;;0.60;0.13;;;;;;;;;;5032542;28;20030;-61
2022/09/17 14:58:25;;;;;;;0.95;0.20;;;;;;;;;;5029321;28;20026;-61